sensor_id;sensor_type;location;lat;lon;timestamp;P1;durP1;ratioP1;P2;durP2;ratioP2
52294;SDS011;38243;53.212;6.574;2022-11-23T00:02:25;1.77;;;1.23;;
52294;SDS011;38243;53.212;6.574;2022-11-23T00:04:50;3.30;;;1.40;;
52294;SDS011;38243;53.212;6.574;2022-11-23T00:07:16;4.00;;;1.58;;
52294;SDS011;38243;53.212;6.574;2022-11-23T00:09:42;3.00;;;1.17;;
52294;SDS011;38243;53.212;6.574;2022-11-23T00:12:07;1.80;;;1.10;;
52294;SDS011;38243;53.212;6.574;2022-11-23T00:14:33;1.52;;;1.27;;
52294;SDS011;38243;53.212;6.574;2022-11-23T00:16:59;2.20;;;1.20;;
52294;SDS011;38243;53.212;6.574;2022-11-23T00:19:25;1.38;;;0.98;;
52294;SDS011;38243;53.212;6.574;2022-11-23T00:21:51;2.35;;;1.35;;
52294;SDS011;38243;53.212;6.574;2022-11-23T00:24:17;2.47;;;1.20;;
52294;SDS011;38243;53.212;6.574;2022-11-23T00:26:42;2.40;;;1.20;;
52294;SDS011;38243;53.212;6.574;2022-11-23T00:29:08;2.55;;;1.00;;
52294;SDS011;38243;53.212;6.574;2022-11-23T00:31:34;1.60;;;1.40;;
52294;SDS011;38243;53.212;6.574;2022-11-23T00:33:59;1.55;;;1.23;;
52294;SDS011;38243;53.212;6.574;2022-11-23T00:36:26;2.83;;;1.42;;
52294;SDS011;38243;53.212;6.574;2022-11-23T00:38:52;1.92;;;1.10;;
52294;SDS011;38243;53.212;6.574;2022-11-23T00:41:22;1.52;;;1.30;;
52294;SDS011;38243;53.212;6.574;2022-11-23T00:43:50;2.22;;;1.38;;
52294;SDS011;38243;53.212;6.574;2022-11-23T00:46:20;3.60;;;1.40;;
52294;SDS011;38243;53.212;6.574;2022-11-23T00:48:51;2.20;;;1.40;;
52294;SDS011;38243;53.212;6.574;2022-11-23T00:51:19;2.28;;;1.50;;
52294;SDS011;38243;53.212;6.574;2022-11-23T00:53:49;2.15;;;1.25;;
52294;SDS011;38243;53.212;6.574;2022-11-23T00:56:15;3.08;;;0.90;;
52294;SDS011;38243;53.212;6.574;2022-11-23T00:58:46;2.53;;;1.33;;
52294;SDS011;38243;53.212;6.574;2022-11-23T01:01:13;2.20;;;1.70;;
52294;SDS011;38243;53.212;6.574;2022-11-23T01:03:45;1.80;;;1.15;;
52294;SDS011;38243;53.212;6.574;2022-11-23T01:06:13;3.10;;;1.27;;
52294;SDS011;38243;53.212;6.574;2022-11-23T01:08:41;2.95;;;1.42;;
52294;SDS011;38243;53.212;6.574;2022-11-23T01:11:10;2.53;;;1.27;;
52294;SDS011;38243;53.212;6.574;2022-11-23T01:13:37;2.35;;;1.40;;
52294;SDS011;38243;53.212;6.574;2022-11-23T01:16:12;3.00;;;1.48;;
52294;SDS011;38243;53.212;6.574;2022-11-23T01:18:45;1.58;;;1.40;;
52294;SDS011;38243;53.212;6.574;2022-11-23T01:21:11;2.70;;;1.53;;
52294;SDS011;38243;53.212;6.574;2022-11-23T01:23:38;1.80;;;1.13;;
52294;SDS011;38243;53.212;6.574;2022-11-23T01:26:05;2.85;;;1.30;;
52294;SDS011;38243;53.212;6.574;2022-11-23T01:28:32;2.22;;;1.40;;
52294;SDS011;38243;53.212;6.574;2022-11-23T01:31:05;2.42;;;1.50;;
52294;SDS011;38243;53.212;6.574;2022-11-23T01:33:36;1.95;;;1.20;;
52294;SDS011;38243;53.212;6.574;2022-11-23T01:36:35;2.30;;;1.40;;
52294;SDS011;38243;53.212;6.574;2022-11-23T01:38:56;2.30;;;1.10;;
52294;SDS011;38243;53.212;6.574;2022-11-23T01:41:24;2.38;;;1.17;;
52294;SDS011;38243;53.212;6.574;2022-11-23T01:43:53;2.10;;;1.08;;
52294;SDS011;38243;53.212;6.574;2022-11-23T01:46:19;2.92;;;1.38;;
52294;SDS011;38243;53.212;6.574;2022-11-23T01:51:25;2.88;;;1.30;;
52294;SDS011;38243;53.212;6.574;2022-11-23T01:53:56;2.55;;;1.20;;
52294;SDS011;38243;53.212;6.574;2022-11-23T01:56:25;1.55;;;0.93;;
52294;SDS011;38243;53.212;6.574;2022-11-23T01:58:55;2.20;;;1.30;;
52294;SDS011;38243;53.212;6.574;2022-11-23T02:01:25;2.22;;;1.40;;
52294;SDS011;38243;53.212;6.574;2022-11-23T02:03:50;3.58;;;1.60;;
52294;SDS011;38243;53.212;6.574;2022-11-23T02:06:20;2.70;;;1.45;;
52294;SDS011;38243;53.212;6.574;2022-11-23T02:08:47;1.48;;;1.10;;
52294;SDS011;38243;53.212;6.574;2022-11-23T02:11:14;2.80;;;1.40;;
52294;SDS011;38243;53.212;6.574;2022-11-23T02:13:41;2.78;;;1.40;;
52294;SDS011;38243;53.212;6.574;2022-11-23T02:16:08;4.63;;;1.40;;
52294;SDS011;38243;53.212;6.574;2022-11-23T02:18:35;2.00;;;1.17;;
52294;SDS011;38243;53.212;6.574;2022-11-23T02:21:03;2.55;;;1.52;;
52294;SDS011;38243;53.212;6.574;2022-11-23T02:26:08;2.60;;;1.30;;
52294;SDS011;38243;53.212;6.574;2022-11-23T02:29:10;2.87;;;1.30;;
52294;SDS011;38243;53.212;6.574;2022-11-23T02:31:51;1.70;;;1.10;;
52294;SDS011;38243;53.212;6.574;2022-11-23T02:34:17;2.05;;;1.27;;
52294;SDS011;38243;53.212;6.574;2022-11-23T02:39:17;3.03;;;1.50;;
52294;SDS011;38243;53.212;6.574;2022-11-23T02:41:52;3.15;;;1.45;;
52294;SDS011;38243;53.212;6.574;2022-11-23T02:47:05;2.33;;;1.40;;
52294;SDS011;38243;53.212;6.574;2022-11-23T02:49:31;2.75;;;1.42;;
52294;SDS011;38243;53.212;6.574;2022-11-23T02:51:57;2.87;;;1.60;;
52294;SDS011;38243;53.212;6.574;2022-11-23T02:54:22;3.40;;;1.42;;
52294;SDS011;38243;53.212;6.574;2022-11-23T02:56:48;2.27;;;1.10;;
52294;SDS011;38243;53.212;6.574;2022-11-23T02:59:14;4.37;;;1.60;;
52294;SDS011;38243;53.212;6.574;2022-11-23T03:01:40;2.53;;;1.10;;
52294;SDS011;38243;53.212;6.574;2022-11-23T03:04:06;3.65;;;1.00;;
52294;SDS011;38243;53.212;6.574;2022-11-23T03:06:32;2.53;;;1.00;;
52294;SDS011;38243;53.212;6.574;2022-11-23T03:08:57;3.10;;;1.50;;
52294;SDS011;38243;53.212;6.574;2022-11-23T03:11:23;3.43;;;1.37;;
52294;SDS011;38243;53.212;6.574;2022-11-23T03:13:49;2.65;;;1.23;;
52294;SDS011;38243;53.212;6.574;2022-11-23T03:16:14;2.57;;;1.20;;
52294;SDS011;38243;53.212;6.574;2022-11-23T03:18:41;3.85;;;1.40;;
52294;SDS011;38243;53.212;6.574;2022-11-23T03:21:07;2.55;;;1.10;;
52294;SDS011;38243;53.212;6.574;2022-11-23T03:23:33;3.95;;;1.45;;
52294;SDS011;38243;53.212;6.574;2022-11-23T03:25:59;3.17;;;1.40;;
52294;SDS011;38243;53.212;6.574;2022-11-23T03:28:25;3.35;;;1.42;;
52294;SDS011;38243;53.212;6.574;2022-11-23T03:30:51;2.40;;;1.30;;
52294;SDS011;38243;53.212;6.574;2022-11-23T03:33:17;1.30;;;0.80;;
52294;SDS011;38243;53.212;6.574;2022-11-23T03:35:43;6.57;;;1.40;;
52294;SDS011;38243;53.212;6.574;2022-11-23T03:38:09;4.10;;;1.20;;
52294;SDS011;38243;53.212;6.574;2022-11-23T03:40:34;2.67;;;1.38;;
52294;SDS011;38243;53.212;6.574;2022-11-23T03:43:00;3.25;;;1.40;;
52294;SDS011;38243;53.212;6.574;2022-11-23T03:45:26;2.73;;;1.40;;
52294;SDS011;38243;53.212;6.574;2022-11-23T03:47:52;1.92;;;1.17;;
52294;SDS011;38243;53.212;6.574;2022-11-23T03:50:17;1.90;;;0.80;;
52294;SDS011;38243;53.212;6.574;2022-11-23T03:52:43;2.80;;;1.33;;
52294;SDS011;38243;53.212;6.574;2022-11-23T03:55:09;3.00;;;1.65;;
52294;SDS011;38243;53.212;6.574;2022-11-23T03:57:34;2.70;;;1.47;;
52294;SDS011;38243;53.212;6.574;2022-11-23T04:00:00;2.90;;;1.55;;
52294;SDS011;38243;53.212;6.574;2022-11-23T04:02:26;2.63;;;1.33;;
52294;SDS011;38243;53.212;6.574;2022-11-23T04:04:52;1.88;;;1.48;;
52294;SDS011;38243;53.212;6.574;2022-11-23T04:07:18;3.03;;;1.53;;
52294;SDS011;38243;53.212;6.574;2022-11-23T04:09:43;2.13;;;1.27;;
52294;SDS011;38243;53.212;6.574;2022-11-23T04:12:09;4.18;;;1.67;;
52294;SDS011;38243;53.212;6.574;2022-11-23T04:14:35;2.93;;;1.90;;
52294;SDS011;38243;53.212;6.574;2022-11-23T04:17:00;2.75;;;1.45;;
52294;SDS011;38243;53.212;6.574;2022-11-23T04:19:26;2.85;;;1.63;;
52294;SDS011;38243;53.212;6.574;2022-11-23T04:21:52;3.58;;;2.17;;
52294;SDS011;38243;53.212;6.574;2022-11-23T04:24:18;3.20;;;1.30;;
52294;SDS011;38243;53.212;6.574;2022-11-23T04:26:44;3.25;;;1.75;;
52294;SDS011;38243;53.212;6.574;2022-11-23T04:29:10;4.23;;;2.10;;
52294;SDS011;38243;53.212;6.574;2022-11-23T04:31:36;1.80;;;1.10;;
52294;SDS011;38243;53.212;6.574;2022-11-23T04:34:01;3.10;;;1.90;;
52294;SDS011;38243;53.212;6.574;2022-11-23T04:36:27;2.47;;;1.63;;
52294;SDS011;38243;53.212;6.574;2022-11-23T04:38:53;2.95;;;1.40;;
52294;SDS011;38243;53.212;6.574;2022-11-23T04:41:19;3.42;;;1.80;;
52294;SDS011;38243;53.212;6.574;2022-11-23T04:43:46;4.93;;;2.10;;
52294;SDS011;38243;53.212;6.574;2022-11-23T04:46:13;2.50;;;1.50;;
52294;SDS011;38243;53.212;6.574;2022-11-23T04:48:38;3.58;;;1.80;;
52294;SDS011;38243;53.212;6.574;2022-11-23T04:51:04;4.35;;;2.53;;
52294;SDS011;38243;53.212;6.574;2022-11-23T04:53:30;3.28;;;1.80;;
52294;SDS011;38243;53.212;6.574;2022-11-23T04:55:56;3.60;;;1.83;;
52294;SDS011;38243;53.212;6.574;2022-11-23T04:58:21;5.03;;;2.97;;
52294;SDS011;38243;53.212;6.574;2022-11-23T05:00:47;4.07;;;2.88;;
52294;SDS011;38243;53.212;6.574;2022-11-23T05:03:13;3.90;;;2.28;;
52294;SDS011;38243;53.212;6.574;2022-11-23T05:05:39;4.40;;;2.03;;
52294;SDS011;38243;53.212;6.574;2022-11-23T05:08:06;2.72;;;1.80;;
52294;SDS011;38243;53.212;6.574;2022-11-23T05:10:32;3.00;;;2.17;;
52294;SDS011;38243;53.212;6.574;2022-11-23T05:12:58;3.33;;;2.30;;
52294;SDS011;38243;53.212;6.574;2022-11-23T05:15:24;4.70;;;2.70;;
52294;SDS011;38243;53.212;6.574;2022-11-23T05:17:49;4.60;;;3.07;;
52294;SDS011;38243;53.212;6.574;2022-11-23T05:20:15;2.80;;;2.35;;
52294;SDS011;38243;53.212;6.574;2022-11-23T05:22:41;3.63;;;3.13;;
52294;SDS011;38243;53.212;6.574;2022-11-23T05:25:07;3.87;;;2.97;;
52294;SDS011;38243;53.212;6.574;2022-11-23T05:27:33;3.90;;;2.57;;
52294;SDS011;38243;53.212;6.574;2022-11-23T05:29:59;3.80;;;2.35;;
52294;SDS011;38243;53.212;6.574;2022-11-23T05:32:25;3.63;;;2.95;;
52294;SDS011;38243;53.212;6.574;2022-11-23T05:34:50;2.90;;;2.10;;
52294;SDS011;38243;53.212;6.574;2022-11-23T05:37:16;2.75;;;2.17;;
52294;SDS011;38243;53.212;6.574;2022-11-23T05:39:42;4.03;;;2.87;;
52294;SDS011;38243;53.212;6.574;2022-11-23T05:42:07;3.25;;;2.20;;
52294;SDS011;38243;53.212;6.574;2022-11-23T05:44:33;5.18;;;3.63;;
52294;SDS011;38243;53.212;6.574;2022-11-23T05:46:59;3.27;;;1.50;;
52294;SDS011;38243;53.212;6.574;2022-11-23T05:49:25;4.53;;;2.67;;
52294;SDS011;38243;53.212;6.574;2022-11-23T05:51:50;3.33;;;2.67;;
52294;SDS011;38243;53.212;6.574;2022-11-23T05:54:16;4.17;;;2.70;;
52294;SDS011;38243;53.212;6.574;2022-11-23T05:56:42;5.00;;;3.90;;
52294;SDS011;38243;53.212;6.574;2022-11-23T05:59:07;6.40;;;4.20;;
52294;SDS011;38243;53.212;6.574;2022-11-23T06:01:34;4.60;;;3.30;;
52294;SDS011;38243;53.212;6.574;2022-11-23T06:04:00;5.13;;;3.40;;
52294;SDS011;38243;53.212;6.574;2022-11-23T06:06:26;6.32;;;3.65;;
52294;SDS011;38243;53.212;6.574;2022-11-23T06:08:51;4.23;;;3.00;;
52294;SDS011;38243;53.212;6.574;2022-11-23T06:11:17;6.50;;;2.78;;
52294;SDS011;38243;53.212;6.574;2022-11-23T06:13:45;3.50;;;3.20;;
52294;SDS011;38243;53.212;6.574;2022-11-23T06:16:12;5.32;;;3.33;;
52294;SDS011;38243;53.212;6.574;2022-11-23T06:18:37;3.75;;;2.30;;
52294;SDS011;38243;53.212;6.574;2022-11-23T06:21:03;4.90;;;3.42;;
52294;SDS011;38243;53.212;6.574;2022-11-23T06:23:29;5.60;;;3.40;;
52294;SDS011;38243;53.212;6.574;2022-11-23T06:25:58;4.43;;;3.20;;
52294;SDS011;38243;53.212;6.574;2022-11-23T06:28:25;5.82;;;3.83;;
52294;SDS011;38243;53.212;6.574;2022-11-23T06:30:51;5.47;;;3.25;;
52294;SDS011;38243;53.212;6.574;2022-11-23T06:33:17;4.28;;;2.60;;
52294;SDS011;38243;53.212;6.574;2022-11-23T06:35:50;5.73;;;2.60;;
52294;SDS011;38243;53.212;6.574;2022-11-23T06:38:17;4.45;;;2.88;;
52294;SDS011;38243;53.212;6.574;2022-11-23T06:40:43;5.53;;;2.97;;
52294;SDS011;38243;53.212;6.574;2022-11-23T06:43:09;5.37;;;2.30;;
52294;SDS011;38243;53.212;6.574;2022-11-23T06:45:34;5.78;;;3.20;;
52294;SDS011;38243;53.212;6.574;2022-11-23T06:48:00;4.38;;;2.78;;
52294;SDS011;38243;53.212;6.574;2022-11-23T06:50:26;5.23;;;2.70;;
52294;SDS011;38243;53.212;6.574;2022-11-23T06:52:55;5.18;;;2.00;;
52294;SDS011;38243;53.212;6.574;2022-11-23T06:55:21;4.72;;;2.03;;
52294;SDS011;38243;53.212;6.574;2022-11-23T06:57:48;4.18;;;2.35;;
52294;SDS011;38243;53.212;6.574;2022-11-23T07:00:14;4.22;;;2.40;;
52294;SDS011;38243;53.212;6.574;2022-11-23T07:02:40;4.60;;;3.05;;
52294;SDS011;38243;53.212;6.574;2022-11-23T07:05:05;3.50;;;2.20;;
52294;SDS011;38243;53.212;6.574;2022-11-23T07:07:31;6.03;;;2.60;;
52294;SDS011;38243;53.212;6.574;2022-11-23T07:09:57;5.20;;;2.33;;
52294;SDS011;38243;53.212;6.574;2022-11-23T07:12:23;3.50;;;2.00;;
52294;SDS011;38243;53.212;6.574;2022-11-23T07:14:49;4.07;;;2.10;;
52294;SDS011;38243;53.212;6.574;2022-11-23T07:17:15;4.72;;;2.20;;
52294;SDS011;38243;53.212;6.574;2022-11-23T07:19:40;3.30;;;2.10;;
52294;SDS011;38243;53.212;6.574;2022-11-23T07:22:06;3.13;;;2.38;;
52294;SDS011;38243;53.212;6.574;2022-11-23T07:24:32;3.90;;;1.63;;
52294;SDS011;38243;53.212;6.574;2022-11-23T07:26:57;5.88;;;2.60;;
52294;SDS011;38243;53.212;6.574;2022-11-23T07:29:23;3.50;;;2.08;;
52294;SDS011;38243;53.212;6.574;2022-11-23T07:31:49;3.53;;;2.03;;
52294;SDS011;38243;53.212;6.574;2022-11-23T07:34:14;3.20;;;1.83;;
52294;SDS011;38243;53.212;6.574;2022-11-23T07:36:40;5.63;;;2.20;;
52294;SDS011;38243;53.212;6.574;2022-11-23T07:39:06;4.30;;;1.90;;
52294;SDS011;38243;53.212;6.574;2022-11-23T07:41:31;4.45;;;2.10;;
52294;SDS011;38243;53.212;6.574;2022-11-23T07:43:57;5.27;;;2.10;;
52294;SDS011;38243;53.212;6.574;2022-11-23T07:46:23;4.75;;;2.22;;
52294;SDS011;38243;53.212;6.574;2022-11-23T07:48:48;7.27;;;2.60;;
52294;SDS011;38243;53.212;6.574;2022-11-23T07:51:14;6.45;;;2.05;;
52294;SDS011;38243;53.212;6.574;2022-11-23T07:53:40;6.13;;;2.15;;
52294;SDS011;38243;53.212;6.574;2022-11-23T07:56:06;5.38;;;2.22;;
52294;SDS011;38243;53.212;6.574;2022-11-23T07:58:32;8.98;;;1.88;;
52294;SDS011;38243;53.212;6.574;2022-11-23T08:00:58;5.38;;;1.95;;
52294;SDS011;38243;53.212;6.574;2022-11-23T08:03:24;5.80;;;1.90;;
52294;SDS011;38243;53.212;6.574;2022-11-23T08:05:50;5.13;;;2.20;;
52294;SDS011;38243;53.212;6.574;2022-11-23T08:08:16;5.30;;;1.90;;
52294;SDS011;38243;53.212;6.574;2022-11-23T08:10:41;5.93;;;1.98;;
52294;SDS011;38243;53.212;6.574;2022-11-23T08:13:07;5.83;;;1.80;;
52294;SDS011;38243;53.212;6.574;2022-11-23T08:15:34;7.97;;;1.80;;
52294;SDS011;38243;53.212;6.574;2022-11-23T08:18:00;6.78;;;2.20;;
52294;SDS011;38243;53.212;6.574;2022-11-23T08:20:28;4.88;;;1.80;;
52294;SDS011;38243;53.212;6.574;2022-11-23T08:22:54;4.72;;;1.70;;
52294;SDS011;38243;53.212;6.574;2022-11-23T08:25:20;6.75;;;1.90;;
52294;SDS011;38243;53.212;6.574;2022-11-23T08:27:47;6.40;;;2.15;;
52294;SDS011;38243;53.212;6.574;2022-11-23T08:30:18;5.35;;;2.70;;
52294;SDS011;38243;53.212;6.574;2022-11-23T08:32:43;5.22;;;1.73;;
52294;SDS011;38243;53.212;6.574;2022-11-23T08:35:09;5.03;;;1.80;;
52294;SDS011;38243;53.212;6.574;2022-11-23T08:37:35;4.87;;;1.80;;
52294;SDS011;38243;53.212;6.574;2022-11-23T08:40:00;4.22;;;1.40;;
52294;SDS011;38243;53.212;6.574;2022-11-23T08:42:26;4.93;;;1.80;;
52294;SDS011;38243;53.212;6.574;2022-11-23T08:44:52;5.10;;;1.60;;
52294;SDS011;38243;53.212;6.574;2022-11-23T08:47:17;4.77;;;1.57;;
52294;SDS011;38243;53.212;6.574;2022-11-23T08:49:43;5.00;;;1.77;;
52294;SDS011;38243;53.212;6.574;2022-11-23T08:52:09;4.30;;;1.52;;
52294;SDS011;38243;53.212;6.574;2022-11-23T08:54:35;4.18;;;1.83;;
52294;SDS011;38243;53.212;6.574;2022-11-23T08:57:00;4.23;;;1.80;;
52294;SDS011;38243;53.212;6.574;2022-11-23T08:59:26;4.30;;;1.40;;
52294;SDS011;38243;53.212;6.574;2022-11-23T09:01:52;3.80;;;1.58;;
52294;SDS011;38243;53.212;6.574;2022-11-23T09:04:17;5.43;;;1.77;;
52294;SDS011;38243;53.212;6.574;2022-11-23T09:06:43;5.80;;;1.42;;
52294;SDS011;38243;53.212;6.574;2022-11-23T09:09:09;3.85;;;1.60;;
52294;SDS011;38243;53.212;6.574;2022-11-23T09:11:35;3.83;;;1.30;;
52294;SDS011;38243;53.212;6.574;2022-11-23T09:14:00;5.50;;;1.50;;
52294;SDS011;38243;53.212;6.574;2022-11-23T09:16:26;5.33;;;1.80;;
52294;SDS011;38243;53.212;6.574;2022-11-23T09:18:55;4.10;;;1.20;;
52294;SDS011;38243;53.212;6.574;2022-11-23T09:21:21;4.60;;;1.63;;
52294;SDS011;38243;53.212;6.574;2022-11-23T09:23:48;4.32;;;1.77;;
52294;SDS011;38243;53.212;6.574;2022-11-23T09:26:14;6.05;;;1.52;;
52294;SDS011;38243;53.212;6.574;2022-11-23T09:28:39;9.33;;;1.87;;
52294;SDS011;38243;53.212;6.574;2022-11-23T09:31:05;6.68;;;1.55;;
52294;SDS011;38243;53.212;6.574;2022-11-23T09:33:31;8.50;;;1.63;;
52294;SDS011;38243;53.212;6.574;2022-11-23T09:35:57;10.40;;;1.52;;
52294;SDS011;38243;53.212;6.574;2022-11-23T09:38:27;9.40;;;1.70;;
52294;SDS011;38243;53.212;6.574;2022-11-23T09:41:00;6.93;;;1.75;;
52294;SDS011;38243;53.212;6.574;2022-11-23T09:46:20;5.85;;;1.40;;
52294;SDS011;38243;53.212;6.574;2022-11-23T09:51:40;6.13;;;1.70;;
52294;SDS011;38243;53.212;6.574;2022-11-23T09:54:14;5.90;;;1.50;;
52294;SDS011;38243;53.212;6.574;2022-11-23T09:56:50;4.95;;;1.50;;
52294;SDS011;38243;53.212;6.574;2022-11-23T10:02:18;6.22;;;1.70;;
52294;SDS011;38243;53.212;6.574;2022-11-23T10:04:46;5.63;;;1.70;;
52294;SDS011;38243;53.212;6.574;2022-11-23T10:10:00;5.57;;;1.65;;
52294;SDS011;38243;53.212;6.574;2022-11-23T10:15:10;5.70;;;1.77;;
52294;SDS011;38243;53.212;6.574;2022-11-23T10:26:15;5.97;;;1.77;;
52294;SDS011;38243;53.212;6.574;2022-11-23T10:28:42;4.15;;;1.50;;
52294;SDS011;38243;53.212;6.574;2022-11-23T10:33:40;5.50;;;1.60;;
52294;SDS011;38243;53.212;6.574;2022-11-23T10:36:10;5.22;;;1.65;;
52294;SDS011;38243;53.212;6.574;2022-11-23T10:38:37;4.78;;;1.80;;
52294;SDS011;38243;53.212;6.574;2022-11-23T10:43:31;4.78;;;1.50;;
52294;SDS011;38243;53.212;6.574;2022-11-23T10:46:28;5.43;;;1.80;;
52294;SDS011;38243;53.212;6.574;2022-11-23T10:48:55;4.18;;;1.65;;
52294;SDS011;38243;53.212;6.574;2022-11-23T10:51:32;5.88;;;1.75;;
52294;SDS011;38243;53.212;6.574;2022-11-23T10:54:02;3.60;;;1.45;;
52294;SDS011;38243;53.212;6.574;2022-11-23T10:56:45;8.53;;;1.60;;
52294;SDS011;38243;53.212;6.574;2022-11-23T10:59:24;5.55;;;1.70;;
52294;SDS011;38243;53.212;6.574;2022-11-23T11:02:08;3.83;;;1.38;;
52294;SDS011;38243;53.212;6.574;2022-11-23T11:04:44;4.60;;;1.48;;
52294;SDS011;38243;53.212;6.574;2022-11-23T11:09:49;5.90;;;1.70;;
52294;SDS011;38243;53.212;6.574;2022-11-23T11:12:17;4.63;;;1.73;;
52294;SDS011;38243;53.212;6.574;2022-11-23T11:17:40;5.18;;;1.70;;
52294;SDS011;38243;53.212;6.574;2022-11-23T11:23:02;4.20;;;1.67;;
52294;SDS011;38243;53.212;6.574;2022-11-23T11:25:40;6.38;;;1.50;;
52294;SDS011;38243;53.212;6.574;2022-11-23T11:28:20;4.20;;;1.45;;
52294;SDS011;38243;53.212;6.574;2022-11-23T11:36:26;4.50;;;1.50;;
52294;SDS011;38243;53.212;6.574;2022-11-23T11:38:58;4.05;;;1.63;;
52294;SDS011;38243;53.212;6.574;2022-11-23T11:41:29;4.20;;;1.58;;
52294;SDS011;38243;53.212;6.574;2022-11-23T11:43:57;5.07;;;1.50;;
52294;SDS011;38243;53.212;6.574;2022-11-23T11:46:37;5.57;;;1.80;;
52294;SDS011;38243;53.212;6.574;2022-11-23T11:49:27;4.35;;;1.40;;
52294;SDS011;38243;53.212;6.574;2022-11-23T11:54:49;5.10;;;1.63;;
52294;SDS011;38243;53.212;6.574;2022-11-23T11:57:23;5.03;;;1.63;;
52294;SDS011;38243;53.212;6.574;2022-11-23T11:59:56;6.27;;;1.83;;
52294;SDS011;38243;53.212;6.574;2022-11-23T12:02:26;6.93;;;1.77;;
52294;SDS011;38243;53.212;6.574;2022-11-23T12:05:20;6.55;;;2.20;;
52294;SDS011;38243;53.212;6.574;2022-11-23T12:10:50;6.47;;;1.85;;
52294;SDS011;38243;53.212;6.574;2022-11-23T12:13:19;5.40;;;1.83;;
52294;SDS011;38243;53.212;6.574;2022-11-23T12:16:07;6.22;;;1.77;;
52294;SDS011;38243;53.212;6.574;2022-11-23T12:25:00;6.93;;;2.00;;
52294;SDS011;38243;53.212;6.574;2022-11-23T12:30:12;6.57;;;1.77;;
52294;SDS011;38243;53.212;6.574;2022-11-23T12:54:20;12.52;;;2.80;;
52294;SDS011;38243;53.212;6.574;2022-11-23T13:00:19;10.90;;;2.30;;
52294;SDS011;38243;53.212;6.574;2022-11-23T13:13:23;8.60;;;2.40;;
52294;SDS011;38243;53.212;6.574;2022-11-23T13:21:38;7.73;;;1.87;;
52294;SDS011;38243;53.212;6.574;2022-11-23T13:42:53;6.88;;;1.98;;
52294;SDS011;38243;53.212;6.574;2022-11-23T13:45:22;6.70;;;2.05;;
52294;SDS011;38243;53.212;6.574;2022-11-23T13:53:02;8.48;;;2.25;;
52294;SDS011;38243;53.212;6.574;2022-11-23T13:55:42;7.40;;;1.87;;
52294;SDS011;38243;53.212;6.574;2022-11-23T14:00:48;5.25;;;1.88;;
52294;SDS011;38243;53.212;6.574;2022-11-23T14:09:09;7.57;;;2.40;;
52294;SDS011;38243;53.212;6.574;2022-11-23T14:11:51;8.90;;;2.28;;
52294;SDS011;38243;53.212;6.574;2022-11-23T14:14:20;6.50;;;1.77;;
52294;SDS011;38243;53.212;6.574;2022-11-23T14:31:10;8.05;;;1.60;;
52294;SDS011;38243;53.212;6.574;2022-11-23T14:33:48;8.80;;;1.80;;
52294;SDS011;38243;53.212;6.574;2022-11-23T14:36:49;8.55;;;1.77;;
52294;SDS011;38243;53.212;6.574;2022-11-23T14:42:13;8.43;;;1.80;;
52294;SDS011;38243;53.212;6.574;2022-11-23T14:44:41;7.40;;;1.80;;
52294;SDS011;38243;53.212;6.574;2022-11-23T14:47:08;6.40;;;1.77;;
52294;SDS011;38243;53.212;6.574;2022-11-23T14:49:36;7.20;;;1.93;;
52294;SDS011;38243;53.212;6.574;2022-11-23T14:52:12;5.15;;;1.55;;
52294;SDS011;38243;53.212;6.574;2022-11-23T14:54:46;7.27;;;1.70;;
52294;SDS011;38243;53.212;6.574;2022-11-23T14:57:17;6.07;;;1.88;;
52294;SDS011;38243;53.212;6.574;2022-11-23T14:59:51;5.10;;;1.60;;
52294;SDS011;38243;53.212;6.574;2022-11-23T15:07:58;7.07;;;1.80;;
52294;SDS011;38243;53.212;6.574;2022-11-23T15:10:51;7.63;;;1.83;;
52294;SDS011;38243;53.212;6.574;2022-11-23T15:13:23;7.13;;;1.67;;
52294;SDS011;38243;53.212;6.574;2022-11-23T15:15:51;4.80;;;1.48;;
52294;SDS011;38243;53.212;6.574;2022-11-23T15:18:32;6.25;;;1.67;;
52294;SDS011;38243;53.212;6.574;2022-11-23T15:23:52;5.07;;;1.45;;
52294;SDS011;38243;53.212;6.574;2022-11-23T15:26:30;5.07;;;1.42;;
52294;SDS011;38243;53.212;6.574;2022-11-23T15:28:58;6.38;;;1.58;;
52294;SDS011;38243;53.212;6.574;2022-11-23T15:31:34;5.43;;;1.33;;
52294;SDS011;38243;53.212;6.574;2022-11-23T15:34:21;6.38;;;1.77;;
52294;SDS011;38243;53.212;6.574;2022-11-23T15:36:47;6.30;;;1.30;;
52294;SDS011;38243;53.212;6.574;2022-11-23T15:39:20;5.22;;;1.48;;
52294;SDS011;38243;53.212;6.574;2022-11-23T15:41:48;6.05;;;1.77;;
52294;SDS011;38243;53.212;6.574;2022-11-23T15:44:16;5.90;;;1.23;;
52294;SDS011;38243;53.212;6.574;2022-11-23T15:46:53;4.82;;;1.40;;
52294;SDS011;38243;53.212;6.574;2022-11-23T15:49:26;5.47;;;1.33;;
52294;SDS011;38243;53.212;6.574;2022-11-23T15:51:57;4.53;;;1.38;;
52294;SDS011;38243;53.212;6.574;2022-11-23T15:54:25;4.85;;;1.30;;
52294;SDS011;38243;53.212;6.574;2022-11-23T15:56:57;4.50;;;1.37;;
52294;SDS011;38243;53.212;6.574;2022-11-23T16:01:55;4.13;;;1.25;;
52294;SDS011;38243;53.212;6.574;2022-11-23T16:04:28;5.00;;;1.42;;
52294;SDS011;38243;53.212;6.574;2022-11-23T16:06:56;3.78;;;1.25;;
52294;SDS011;38243;53.212;6.574;2022-11-23T16:09:39;7.03;;;1.60;;
52294;SDS011;38243;53.212;6.574;2022-11-23T16:12:22;5.30;;;1.38;;
52294;SDS011;38243;53.212;6.574;2022-11-23T16:14:52;6.13;;;1.65;;
52294;SDS011;38243;53.212;6.574;2022-11-23T16:19:50;6.72;;;1.60;;
52294;SDS011;38243;53.212;6.574;2022-11-23T16:22:29;4.30;;;1.08;;
52294;SDS011;38243;53.212;6.574;2022-11-23T16:25:43;5.00;;;1.50;;
52294;SDS011;38243;53.212;6.574;2022-11-23T16:30:37;4.18;;;1.00;;
52294;SDS011;38243;53.212;6.574;2022-11-23T16:33:05;4.70;;;1.40;;
52294;SDS011;38243;53.212;6.574;2022-11-23T16:35:37;5.82;;;1.30;;
52294;SDS011;38243;53.212;6.574;2022-11-23T16:38:04;5.32;;;1.70;;
52294;SDS011;38243;53.212;6.574;2022-11-23T16:40:33;5.50;;;1.85;;
52294;SDS011;38243;53.212;6.574;2022-11-23T16:43:02;4.15;;;1.10;;
52294;SDS011;38243;53.212;6.574;2022-11-23T16:45:28;3.67;;;1.20;;
52294;SDS011;38243;53.212;6.574;2022-11-23T16:47:55;4.22;;;1.23;;
52294;SDS011;38243;53.212;6.574;2022-11-23T16:50:32;3.22;;;1.13;;
52294;SDS011;38243;53.212;6.574;2022-11-23T16:53:11;3.72;;;1.40;;
52294;SDS011;38243;53.212;6.574;2022-11-23T16:55:38;6.83;;;1.50;;
52294;SDS011;38243;53.212;6.574;2022-11-23T16:58:04;4.72;;;1.30;;
52294;SDS011;38243;53.212;6.574;2022-11-23T17:00:31;5.28;;;1.50;;
52294;SDS011;38243;53.212;6.574;2022-11-23T17:02:57;3.10;;;1.10;;
52294;SDS011;38243;53.212;6.574;2022-11-23T17:05:23;2.90;;;1.30;;
52294;SDS011;38243;53.212;6.574;2022-11-23T17:07:49;3.75;;;1.05;;
52294;SDS011;38243;53.212;6.574;2022-11-23T17:10:15;4.07;;;1.40;;
52294;SDS011;38243;53.212;6.574;2022-11-23T17:12:51;4.15;;;1.50;;
52294;SDS011;38243;53.212;6.574;2022-11-23T17:15:19;4.70;;;1.55;;
52294;SDS011;38243;53.212;6.574;2022-11-23T17:17:46;2.90;;;1.30;;
52294;SDS011;38243;53.212;6.574;2022-11-23T17:20:13;4.00;;;1.17;;
52294;SDS011;38243;53.212;6.574;2022-11-23T17:22:40;3.37;;;1.20;;
52294;SDS011;38243;53.212;6.574;2022-11-23T17:25:06;4.43;;;1.10;;
52294;SDS011;38243;53.212;6.574;2022-11-23T17:27:34;3.67;;;1.13;;
52294;SDS011;38243;53.212;6.574;2022-11-23T17:30:05;2.63;;;1.13;;
52294;SDS011;38243;53.212;6.574;2022-11-23T17:32:41;4.10;;;1.40;;
52294;SDS011;38243;53.212;6.574;2022-11-23T17:35:07;4.18;;;1.30;;
52294;SDS011;38243;53.212;6.574;2022-11-23T17:37:33;3.95;;;1.40;;
52294;SDS011;38243;53.212;6.574;2022-11-23T17:40:00;4.35;;;1.25;;
52294;SDS011;38243;53.212;6.574;2022-11-23T17:42:26;2.83;;;1.00;;
52294;SDS011;38243;53.212;6.574;2022-11-23T17:44:52;3.08;;;1.10;;
52294;SDS011;38243;53.212;6.574;2022-11-23T17:47:25;3.60;;;1.30;;
52294;SDS011;38243;53.212;6.574;2022-11-23T17:49:53;2.83;;;1.10;;
52294;SDS011;38243;53.212;6.574;2022-11-23T17:52:27;2.90;;;1.13;;